Terminal Aerodrome Forecast
Issued by NWS

Home | Current Version | Previous Version | Text Only | Print | Product List | Glossary On
Versions: 1 2 3 4 5 6 7 8 9 10 11 12 13 14 15 16 17 18 19 20 21 22 23 24 25 26 27
846
FTUS41 KOKX 172332
TAFHPN
TAF
KHPN 172332Z 1800/1824 00000KT P6SM SCT050 BKN100
      TEMPO 1805/1808 6SM -SNPLRA SCT008 BKN020
     FM180800 VRB02KT P6SM BKN020
      TEMPO 1808/1812 6SM -FZRASNPL SCT008 BKN015
     FM181600 VRB05KT P6SM FEW020 FEW250
     FM181800 26006KT P6SM FEW250
      AMD NOT SKED=

USA.gov is the U.S. government's official web portal to all federal, state and local government web resources and services.